createdAt,value
2018-08-31T00:02:31.958Z,80.40
2018-08-31T00:05:38.640Z,80.40
2018-08-31T00:10:25.576Z,80.00
2018-08-31T00:12:53.088Z,80.20
2018-08-31T00:15:20.623Z,80.00
2018-08-31T00:17:48.189Z,80.20
2018-08-31T00:20:15.745Z,79.90
2018-08-31T00:22:43.309Z,79.70
2018-08-31T00:25:22.341Z,79.90
2018-08-31T00:28:01.191Z,79.70
2018-08-31T00:30:40.116Z,79.30
2018-08-31T00:33:19.136Z,79.50
2018-08-31T00:38:00.969Z,79.50
2018-08-31T00:40:39.540Z,79.70
2018-08-31T00:44:18.199Z,79.70
2018-08-31T00:46:45.940Z,80.00
2018-08-31T00:49:13.513Z,80.00
2018-08-31T00:51:41.023Z,79.90
2018-08-31T00:54:08.555Z,79.90
2018-08-31T00:56:36.060Z,79.50
2018-08-31T00:59:03.676Z,79.30
2018-08-31T01:01:31.345Z,78.90
2018-08-31T01:03:58.864Z,78.70
2018-08-31T01:06:26.535Z,78.90
2018-08-31T01:08:54.131Z,79.10
2018-08-31T01:11:21.626Z,79.30
2018-08-31T01:13:49.488Z,79.50
2018-08-31T01:16:17.084Z,79.90
2018-08-31T01:18:44.804Z,79.70
2018-08-31T01:21:12.340Z,79.10
2018-08-31T01:23:39.887Z,78.90
2018-08-31T01:26:07.540Z,78.90
2018-08-31T01:28:35.112Z,79.30
2018-08-31T01:31:02.897Z,79.50
2018-08-31T01:33:30.507Z,79.70
2018-08-31T01:35:58.163Z,79.50
2018-08-31T01:38:25.836Z,79.50
2018-08-31T01:40:53.681Z,79.50
2018-08-31T01:43:21.398Z,79.50
2018-08-31T01:45:48.911Z,80.00
2018-08-31T01:48:16.465Z,80.00
2018-08-31T01:50:49.772Z,80.20
2018-08-31T01:53:17.651Z,80.40
2018-08-31T01:55:45.180Z,80.20
2018-08-31T01:58:12.763Z,79.90
2018-08-31T02:00:40.340Z,79.70
2018-08-31T02:03:07.999Z,79.50
2018-08-31T02:05:35.644Z,79.30
2018-08-31T02:08:03.655Z,78.90
2018-08-31T02:10:31.177Z,78.60
2018-08-31T02:12:58.772Z,78.40
2018-08-31T02:15:26.393Z,78.40
2018-08-31T02:17:53.951Z,78.00
2018-08-31T02:20:21.477Z,78.60
2018-08-31T02:22:49.210Z,78.70
2018-08-31T02:25:16.883Z,78.70
2018-08-31T02:27:44.497Z,78.70
2018-08-31T02:30:12.031Z,78.90
2018-08-31T02:32:39.574Z,78.60
2018-08-31T02:35:07.407Z,78.20
2018-08-31T02:37:35.266Z,78.40
2018-08-31T02:40:03.073Z,78.70
2018-08-31T02:42:30.696Z,78.90
2018-08-31T02:44:58.382Z,78.90
2018-08-31T02:47:26.122Z,79.30
2018-08-31T02:49:53.782Z,79.50
2018-08-31T02:52:21.443Z,79.70
2018-08-31T02:54:49.206Z,79.90
2018-08-31T02:57:16.776Z,79.70
2018-08-31T02:59:44.432Z,79.90
2018-08-31T03:02:12.210Z,80.20
2018-08-31T03:04:39.851Z,80.60
2018-08-31T03:07:07.573Z,80.60
2018-08-31T03:09:35.131Z,80.20
2018-08-31T03:12:02.643Z,80.20
2018-08-31T03:14:30.424Z,80.40
2018-08-31T03:16:58.182Z,81.20
2018-08-31T03:19:25.763Z,81.40
2018-08-31T03:21:54.625Z,81.50
2018-08-31T03:24:22.302Z,81.70
2018-08-31T03:26:50.057Z,82.70
2018-08-31T03:29:17.611Z,82.80
2018-08-31T03:31:45.243Z,82.80
2018-08-31T03:34:12.817Z,82.80
2018-08-31T03:36:40.723Z,82.70
2018-08-31T03:39:09.587Z,82.70
2018-08-31T03:41:37.786Z,82.70
2018-08-31T03:44:05.752Z,82.70
2018-08-31T03:46:33.391Z,82.10
2018-08-31T03:49:01.393Z,82.30
2018-08-31T03:51:29.107Z,82.30
2018-08-31T03:53:56.707Z,81.70
2018-08-31T03:56:24.227Z,81.50
2018-08-31T03:58:51.921Z,81.50
2018-08-31T04:01:19.558Z,81.20
2018-08-31T04:03:47.149Z,81.20
2018-08-31T04:06:14.738Z,81.20
2018-08-31T04:08:42.374Z,81.40
2018-08-31T04:11:09.980Z,81.40
2018-08-31T04:13:37.552Z,81.50
2018-08-31T04:16:05.112Z,81.90
2018-08-31T04:18:32.644Z,82.30
2018-08-31T04:21:00.310Z,82.50
2018-08-31T04:23:27.839Z,82.30
2018-08-31T04:25:55.549Z,82.30
2018-08-31T04:28:23.108Z,82.30
2018-08-31T04:30:50.824Z,82.10
2018-08-31T04:33:18.415Z,81.90
2018-08-31T04:35:45.924Z,81.90
2018-08-31T04:38:13.434Z,82.10
2018-08-31T04:40:41.077Z,82.10
2018-08-31T04:43:08.688Z,81.50
2018-08-31T04:45:36.381Z,81.00
2018-08-31T04:48:04.131Z,81.40
2018-08-31T04:50:31.748Z,81.70
2018-08-31T04:52:59.282Z,82.10
2018-08-31T04:55:27.017Z,82.70
2018-08-31T04:57:54.899Z,83.00
2018-08-31T05:00:22.589Z,82.70
2018-08-31T05:02:50.216Z,82.70
2018-08-31T05:05:18.174Z,82.50
2018-08-31T05:07:45.731Z,82.50
2018-08-31T05:10:13.236Z,82.10
2018-08-31T05:12:40.787Z,81.40
2018-08-31T05:15:08.399Z,81.40
2018-08-31T05:17:35.934Z,82.10
2018-08-31T05:20:03.967Z,83.60
2018-08-31T05:22:31.670Z,83.80
2018-08-31T05:24:59.394Z,83.80
2018-08-31T05:27:27.047Z,83.80
2018-08-31T05:29:54.708Z,83.80
2018-08-31T05:32:22.462Z,83.40
2018-08-31T05:34:51.203Z,83.40
2018-08-31T05:37:18.703Z,83.40
2018-08-31T05:39:46.406Z,83.20
2018-08-31T05:42:14.037Z,82.80
2018-08-31T05:44:41.556Z,82.80
2018-08-31T05:47:09.084Z,83.20
2018-08-31T05:49:36.815Z,83.40
2018-08-31T05:52:04.487Z,83.20
2018-08-31T05:54:31.991Z,83.40
2018-08-31T05:56:59.627Z,83.40
2018-08-31T05:59:27.203Z,83.60
2018-08-31T06:01:54.915Z,83.40
2018-08-31T06:04:22.459Z,83.20
2018-08-31T06:06:50.040Z,82.80
2018-08-31T06:09:18.512Z,82.30
2018-08-31T06:11:46.131Z,82.10
2018-08-31T06:14:13.653Z,82.30
2018-08-31T06:16:41.321Z,83.40
2018-08-31T06:19:08.892Z,84.50
2018-08-31T06:21:36.575Z,84.00
2018-08-31T06:24:13.066Z,84.50
2018-08-31T06:26:40.654Z,85.30
2018-08-31T06:29:08.210Z,85.10
2018-08-31T06:31:35.785Z,84.70
2018-08-31T06:34:03.429Z,84.50
2018-08-31T06:36:31.010Z,84.30
2018-08-31T06:38:58.559Z,84.10
2018-08-31T06:41:26.140Z,83.60
2018-08-31T06:43:53.748Z,84.00
2018-08-31T06:46:21.318Z,84.50
2018-08-31T06:48:48.900Z,84.90
2018-08-31T06:51:16.561Z,84.70
2018-08-31T06:53:44.112Z,83.00
2018-08-31T06:56:11.672Z,81.50
2018-08-31T06:58:39.238Z,82.50
2018-08-31T07:01:06.916Z,83.00
2018-08-31T07:03:34.609Z,81.40
2018-08-31T07:06:02.188Z,81.00
2018-08-31T07:08:29.803Z,82.50
2018-08-31T07:10:57.378Z,82.50
2018-08-31T07:13:24.944Z,83.20
2018-08-31T07:15:52.507Z,84.10
2018-08-31T07:18:20.143Z,84.50
2018-08-31T07:20:47.791Z,81.50
2018-08-31T07:23:15.493Z,79.90
2018-08-31T07:25:43.069Z,78.90
2018-08-31T07:28:10.626Z,78.20
2018-08-31T07:30:38.196Z,76.90
2018-08-31T07:33:05.791Z,78.00
2018-08-31T07:35:33.388Z,78.90
2018-08-31T07:38:01.028Z,79.30
2018-08-31T07:40:28.606Z,77.10
2018-08-31T07:42:56.172Z,75.90
2018-08-31T07:45:23.807Z,75.60
2018-08-31T07:47:51.565Z,73.90
2018-08-31T07:50:25.897Z,75.60
2018-08-31T07:52:53.448Z,77.10
2018-08-31T07:55:21.010Z,75.20
2018-08-31T07:57:48.535Z,76.30
2018-08-31T08:00:16.083Z,77.30
2018-08-31T08:02:43.623Z,75.00
2018-08-31T08:05:11.257Z,74.80
2018-08-31T08:07:38.809Z,73.70
2018-08-31T08:10:06.448Z,73.90
2018-08-31T08:12:34.108Z,74.30
2018-08-31T08:15:01.678Z,74.50
2018-08-31T08:17:29.404Z,73.70
2018-08-31T08:19:57.150Z,74.10
2018-08-31T08:22:24.892Z,73.30
2018-08-31T08:24:52.515Z,73.00
2018-08-31T08:27:20.053Z,72.60
2018-08-31T08:29:47.628Z,70.70
2018-08-31T08:32:15.205Z,72.60
2018-08-31T08:34:42.802Z,72.00
2018-08-31T08:37:10.479Z,71.70
2018-08-31T08:39:38.132Z,71.10
2018-08-31T08:42:05.771Z,71.70
2018-08-31T08:44:33.417Z,70.70
2018-08-31T08:47:01.022Z,70.70
2018-08-31T08:49:29.094Z,71.70
2018-08-31T08:51:56.787Z,71.70
2018-08-31T08:54:24.658Z,71.80
2018-08-31T08:56:52.246Z,72.20
2018-08-31T08:59:19.845Z,71.50
2018-08-31T09:01:47.415Z,70.50
2018-08-31T09:04:15.001Z,68.90
2018-08-31T09:06:42.628Z,69.40
2018-08-31T09:09:10.596Z,70.40
2018-08-31T09:11:38.464Z,71.70
2018-08-31T09:14:06.457Z,71.80
2018-08-31T09:16:34.045Z,72.60
2018-08-31T09:19:01.682Z,75.20
2018-08-31T09:21:29.248Z,72.40
2018-08-31T09:23:56.917Z,72.20
2018-08-31T09:26:24.491Z,72.60
2018-08-31T09:28:52.047Z,71.30
2018-08-31T09:31:19.667Z,70.90
2018-08-31T09:33:47.325Z,71.30
2018-08-31T09:36:15.006Z,71.50
2018-08-31T09:38:43.049Z,71.50
2018-08-31T09:41:10.664Z,72.60
2018-08-31T09:43:38.223Z,73.00
2018-08-31T09:46:05.997Z,72.80
2018-08-31T09:48:33.600Z,73.20
2018-08-31T09:51:01.219Z,73.50
2018-08-31T09:53:28.773Z,73.30
2018-08-31T09:55:56.608Z,73.30
2018-08-31T09:58:24.776Z,73.20
2018-08-31T10:00:54.175Z,74.30
2018-08-31T10:03:24.239Z,75.60
2018-08-31T10:05:52.993Z,75.00
2018-08-31T10:08:21.325Z,76.10
2018-08-31T10:10:49.002Z,75.90
2018-08-31T10:13:16.613Z,75.80
2018-08-31T10:15:44.259Z,75.90
2018-08-31T10:18:11.849Z,76.30
2018-08-31T10:20:39.545Z,76.70
2018-08-31T10:23:07.131Z,76.10
2018-08-31T10:25:34.996Z,75.80
2018-08-31T10:28:03.062Z,76.30
2018-08-31T10:30:30.786Z,76.50
2018-08-31T10:32:58.396Z,76.90
2018-08-31T10:35:26.042Z,76.50
2018-08-31T10:37:53.987Z,75.60
2018-08-31T10:40:21.704Z,75.80
2018-08-31T10:42:49.293Z,75.80
2018-08-31T10:45:16.870Z,76.10
2018-08-31T10:47:44.517Z,76.10
2018-08-31T10:50:12.182Z,76.30
2018-08-31T10:52:39.864Z,77.40
2018-08-31T10:55:07.517Z,76.90
2018-08-31T10:57:35.400Z,78.00
2018-08-31T11:00:03.229Z,76.90
2018-08-31T11:02:30.772Z,77.80
2018-08-31T11:04:58.308Z,78.00
2018-08-31T11:07:25.912Z,77.10
2018-08-31T11:09:54.013Z,77.40
2018-08-31T11:12:21.638Z,78.20
2018-08-31T11:14:49.330Z,78.20
2018-08-31T11:17:16.929Z,76.90
2018-08-31T11:19:44.485Z,78.90
2018-08-31T11:22:12.097Z,78.60
2018-08-31T11:24:39.708Z,80.00
2018-08-31T11:27:07.581Z,79.90
2018-08-31T11:29:35.184Z,80.20
2018-08-31T11:32:03.201Z,81.00
2018-08-31T11:34:30.768Z,78.70
2018-08-31T11:36:58.330Z,78.20
2018-08-31T11:39:25.892Z,77.30
2018-08-31T11:41:53.525Z,75.40
2018-08-31T11:44:21.114Z,76.50
2018-08-31T11:46:48.784Z,76.50
2018-08-31T11:49:16.411Z,75.90
2018-08-31T11:51:44.285Z,76.50
2018-08-31T11:54:11.915Z,75.80
2018-08-31T11:56:39.545Z,75.40
2018-08-31T11:59:07.130Z,77.30
2018-08-31T12:01:34.830Z,79.10
2018-08-31T12:04:02.433Z,77.30
2018-08-31T12:06:30.031Z,79.10
2018-08-31T12:08:57.623Z,78.40
2018-08-31T12:11:25.372Z,77.80
2018-08-31T12:13:52.976Z,79.10
2018-08-31T12:16:20.610Z,80.60
2018-08-31T12:18:48.260Z,80.20
2018-08-31T12:21:15.831Z,80.20
2018-08-31T12:23:43.395Z,78.90
2018-08-31T12:26:11.042Z,77.30
2018-08-31T12:28:38.635Z,76.90
2018-08-31T12:31:06.227Z,76.30
2018-08-31T12:33:33.909Z,76.30
2018-08-31T12:36:01.514Z,77.40
2018-08-31T12:38:29.084Z,76.30
2018-08-31T12:40:56.667Z,76.50
2018-08-31T12:43:24.248Z,78.20
2018-08-31T12:45:51.846Z,79.30
2018-08-31T12:48:19.452Z,79.70
2018-08-31T12:50:47.061Z,78.90
2018-08-31T12:53:14.726Z,80.40
2018-08-31T12:55:42.288Z,82.10
2018-08-31T12:58:09.867Z,83.60
2018-08-31T13:00:37.421Z,83.80
2018-08-31T13:03:05.139Z,82.10
2018-08-31T13:05:32.728Z,82.30
2018-08-31T13:08:00.296Z,81.70
2018-08-31T13:10:27.846Z,80.60
2018-08-31T13:12:55.575Z,80.60
2018-08-31T13:15:23.155Z,80.80
2018-08-31T13:17:50.767Z,80.20
2018-08-31T13:20:18.408Z,80.40
2018-08-31T13:22:46.188Z,78.00
2018-08-31T13:25:13.824Z,79.10
2018-08-31T13:27:41.381Z,77.80
2018-08-31T13:30:09.030Z,79.50
2018-08-31T13:32:36.605Z,80.40
2018-08-31T13:35:04.184Z,80.60
2018-08-31T13:37:31.748Z,80.20
2018-08-31T13:39:59.372Z,76.30
2018-08-31T13:42:26.907Z,75.80
2018-08-31T13:44:54.487Z,77.30
2018-08-31T13:47:22.075Z,78.40
2018-08-31T13:49:49.816Z,78.60
2018-08-31T13:52:17.446Z,78.40
2018-08-31T13:54:45.009Z,80.40
2018-08-31T13:57:34.701Z,80.60
2018-08-31T14:00:02.376Z,81.90
2018-08-31T14:02:29.977Z,81.00
2018-08-31T14:04:57.563Z,80.40
2018-08-31T14:07:25.173Z,79.70
2018-08-31T14:09:52.780Z,80.20
2018-08-31T14:12:21.183Z,78.90
2018-08-31T14:14:48.716Z,79.90
2018-08-31T14:17:16.294Z,80.40
2018-08-31T14:19:43.846Z,79.90
2018-08-31T14:22:11.428Z,78.70
2018-08-31T14:24:39.005Z,78.20
2018-08-31T14:27:06.646Z,75.80
2018-08-31T14:29:34.307Z,74.50
2018-08-31T14:32:01.886Z,75.00
2018-08-31T14:34:29.555Z,75.60
2018-08-31T14:36:57.092Z,76.10
2018-08-31T14:39:24.674Z,74.60
2018-08-31T14:41:52.220Z,73.20
2018-08-31T14:44:19.826Z,73.00
2018-08-31T14:46:47.390Z,71.30
2018-08-31T14:49:14.998Z,70.40
2018-08-31T14:51:42.611Z,70.20
2018-08-31T14:54:10.240Z,68.70
2018-08-31T14:56:37.846Z,68.50
2018-08-31T14:59:05.447Z,68.30
2018-08-31T15:01:33.094Z,68.70
2018-08-31T15:04:00.696Z,70.90
2018-08-31T15:06:28.307Z,68.90
2018-08-31T15:08:55.872Z,68.50
2018-08-31T15:11:23.435Z,69.80
2018-08-31T15:13:50.977Z,68.10
2018-08-31T15:16:18.555Z,67.40
2018-08-31T15:18:46.175Z,66.80
2018-08-31T15:21:13.807Z,66.80
2018-08-31T15:23:41.370Z,66.80
2018-08-31T15:26:08.948Z,67.00
2018-08-31T15:28:36.527Z,65.70
2018-08-31T15:31:04.143Z,65.00
2018-08-31T15:33:31.687Z,66.30
2018-08-31T15:35:59.316Z,66.80
2018-08-31T15:38:26.852Z,65.90
2018-08-31T15:40:54.364Z,65.10
2018-08-31T15:43:22.273Z,65.00
2018-08-31T15:45:49.938Z,66.10
2018-08-31T15:48:17.566Z,65.00
2018-08-31T15:50:45.282Z,65.00
2018-08-31T15:53:12.910Z,63.80
2018-08-31T15:55:40.527Z,64.60
2018-08-31T15:58:08.205Z,63.50
2018-08-31T16:00:35.769Z,62.00
2018-08-31T16:03:03.348Z,59.60
2018-08-31T16:05:30.908Z,60.30
2018-08-31T16:07:58.509Z,59.80
2018-08-31T16:10:26.576Z,60.30
2018-08-31T16:12:54.175Z,60.90
2018-08-31T16:15:21.763Z,60.70
2018-08-31T16:17:49.339Z,59.50
2018-08-31T16:20:16.969Z,60.70
2018-08-31T16:22:44.561Z,61.00
2018-08-31T16:25:12.200Z,59.80
2018-08-31T16:27:40.101Z,59.80
2018-08-31T16:30:07.734Z,59.50
2018-08-31T16:32:35.340Z,60.30
2018-08-31T16:35:02.977Z,59.90
2018-08-31T16:37:30.551Z,59.80
2018-08-31T16:39:58.084Z,59.50
2018-08-31T16:42:25.723Z,59.20
2018-08-31T16:44:53.300Z,60.10
2018-08-31T16:47:20.913Z,61.40
2018-08-31T16:49:48.506Z,62.20
2018-08-31T16:52:16.096Z,63.30
2018-08-31T16:54:43.740Z,64.20
2018-08-31T16:57:11.308Z,65.50
2018-08-31T16:59:38.868Z,65.70
2018-08-31T17:02:06.493Z,66.80
2018-08-31T17:04:34.092Z,67.00
2018-08-31T17:07:01.677Z,67.40
2018-08-31T17:09:29.245Z,67.40
2018-08-31T17:11:56.792Z,69.10
2018-08-31T17:14:24.388Z,68.70
2018-08-31T17:16:52.056Z,69.10
2018-08-31T17:19:19.626Z,69.60
2018-08-31T17:21:47.232Z,70.20
2018-08-31T17:24:14.798Z,71.30
2018-08-31T17:26:48.105Z,72.60
2018-08-31T17:29:21.487Z,73.30
2018-08-31T17:31:54.704Z,73.50
2018-08-31T17:34:28.019Z,73.30
2018-08-31T17:37:01.324Z,73.90
2018-08-31T17:39:29.014Z,74.30
2018-08-31T17:41:56.629Z,73.70
2018-08-31T17:44:24.543Z,73.90
2018-08-31T17:46:52.143Z,73.00
2018-08-31T17:49:19.804Z,73.70
2018-08-31T17:51:47.473Z,74.30
2018-08-31T17:54:15.071Z,75.00
2018-08-31T17:56:42.681Z,75.90
2018-08-31T17:59:10.289Z,76.30
2018-08-31T18:01:37.867Z,76.70
2018-08-31T18:04:05.505Z,76.90
2018-08-31T18:06:33.021Z,76.30
2018-08-31T18:09:00.584Z,76.70
2018-08-31T18:11:28.215Z,76.90
2018-08-31T18:13:55.793Z,76.50
2018-08-31T18:16:23.447Z,77.40
2018-08-31T18:18:50.939Z,77.30
2018-08-31T18:21:18.542Z,77.80
2018-08-31T18:23:46.085Z,77.40
2018-08-31T18:26:13.663Z,77.30
2018-08-31T18:28:41.228Z,78.00
2018-08-31T18:31:08.772Z,78.00
2018-08-31T18:33:36.307Z,78.70
2018-08-31T18:36:03.915Z,79.70
2018-08-31T18:38:31.461Z,79.70
2018-08-31T18:40:59.052Z,80.00
2018-08-31T18:43:26.601Z,80.60
2018-08-31T18:45:54.129Z,81.70
2018-08-31T18:48:21.709Z,82.50
2018-08-31T18:50:49.279Z,82.80
2018-08-31T18:53:16.840Z,83.20
2018-08-31T18:55:44.405Z,83.60
2018-08-31T18:58:12.005Z,84.00
2018-08-31T19:00:39.591Z,84.10
2018-08-31T19:03:07.099Z,84.10
2018-08-31T19:05:34.641Z,84.00
2018-08-31T19:08:02.305Z,84.30
2018-08-31T19:10:29.881Z,84.00
2018-08-31T19:12:57.505Z,84.30
2018-08-31T19:15:25.846Z,84.30
2018-08-31T19:17:53.415Z,84.70
2018-08-31T19:20:20.993Z,84.30
2018-08-31T19:22:48.589Z,85.10
2018-08-31T19:25:16.165Z,87.10
2018-08-31T19:27:43.740Z,87.90
2018-08-31T19:30:11.325Z,88.60
2018-08-31T19:32:38.880Z,89.60
2018-08-31T19:35:06.553Z,89.90
2018-08-31T19:37:34.188Z,90.40
2018-08-31T19:40:01.797Z,91.20
2018-08-31T19:42:29.441Z,89.20
2018-08-31T19:44:57.088Z,87.90
2018-08-31T19:47:24.791Z,87.90
2018-08-31T19:49:52.803Z,87.90
2018-08-31T19:52:20.389Z,87.90
2018-08-31T19:54:47.979Z,87.10
2018-08-31T19:57:15.559Z,86.20
2018-08-31T19:59:43.154Z,86.20
2018-08-31T20:02:10.829Z,86.00
2018-08-31T20:04:38.472Z,87.50
2018-08-31T20:07:06.141Z,86.90
2018-08-31T20:09:33.788Z,85.10
2018-08-31T20:12:01.456Z,83.80
2018-08-31T20:14:29.279Z,82.80
2018-08-31T20:16:56.925Z,81.90
2018-08-31T20:19:24.601Z,82.70
2018-08-31T20:21:52.193Z,83.20
2018-08-31T20:24:19.783Z,81.20
2018-08-31T20:26:47.747Z,81.50
2018-08-31T20:29:15.392Z,80.80
2018-08-31T20:31:42.989Z,81.90
2018-08-31T20:34:10.618Z,81.90
2018-08-31T20:36:38.320Z,83.00
2018-08-31T20:39:07.709Z,82.80
2018-08-31T20:41:35.349Z,83.00
2018-08-31T20:44:02.905Z,83.60
2018-08-31T20:46:30.485Z,83.40
2018-08-31T20:48:58.474Z,81.50
2018-08-31T20:51:26.116Z,80.60
2018-08-31T20:53:53.741Z,81.50
2018-08-31T20:56:21.691Z,81.70
2018-08-31T20:58:49.245Z,82.30
2018-08-31T21:01:16.957Z,82.80
2018-08-31T21:03:44.724Z,83.40
2018-08-31T21:06:12.391Z,83.20
2018-08-31T21:08:40.115Z,83.40
2018-08-31T21:11:07.886Z,83.40
2018-08-31T21:13:35.588Z,82.30
2018-08-31T21:16:03.224Z,83.20
2018-08-31T21:18:30.818Z,82.80
2018-08-31T21:20:58.346Z,82.80
2018-08-31T21:23:26.071Z,83.20
2018-08-31T21:25:53.813Z,83.60
2018-08-31T21:28:21.432Z,83.20
2018-08-31T21:30:49.132Z,83.00
2018-08-31T21:33:16.838Z,82.30
2018-08-31T21:35:44.451Z,82.10
2018-08-31T21:38:12.165Z,82.70
2018-08-31T21:40:39.877Z,83.40
2018-08-31T21:43:07.507Z,83.60
2018-08-31T21:45:35.137Z,84.00
2018-08-31T21:48:03.005Z,84.30
2018-08-31T21:50:30.674Z,84.30
2018-08-31T21:52:58.209Z,84.50
2018-08-31T21:55:26.283Z,84.90
2018-08-31T21:57:53.815Z,85.30
2018-08-31T22:00:22.009Z,85.60
2018-08-31T22:02:50.390Z,86.00
2018-08-31T22:05:18.348Z,86.20
2018-08-31T22:07:46.620Z,86.20
2018-08-31T22:10:14.826Z,85.80
2018-08-31T22:12:42.949Z,86.60
2018-08-31T22:15:16.172Z,86.90
2018-08-31T22:17:43.922Z,87.30
2018-08-31T22:20:11.687Z,87.30
2018-08-31T22:22:39.621Z,87.90
2018-08-31T22:25:07.524Z,88.20
2018-08-31T22:27:35.172Z,88.10
2018-08-31T22:30:03.159Z,88.60
2018-08-31T22:32:30.915Z,89.20
2018-08-31T22:34:58.587Z,89.60
2018-08-31T22:37:26.405Z,89.60
2018-08-31T22:39:54.067Z,89.90
2018-08-31T22:42:21.717Z,89.90
2018-08-31T22:44:49.268Z,90.10
2018-08-31T22:47:17.105Z,90.10
2018-08-31T22:49:44.744Z,90.30
2018-08-31T22:52:12.414Z,90.50
2018-08-31T22:54:40.071Z,90.60
2018-08-31T22:57:07.600Z,90.80
2018-08-31T22:59:35.238Z,90.90
2018-08-31T23:02:03.175Z,91.10
2018-08-31T23:04:30.859Z,91.40
2018-08-31T23:06:58.497Z,91.50
2018-08-31T23:09:26.088Z,91.30
2018-08-31T23:11:53.795Z,91.20
2018-08-31T23:14:21.425Z,91.00
2018-08-31T23:16:49.241Z,91.00
2018-08-31T23:19:16.795Z,91.00
2018-08-31T23:21:44.500Z,90.90
2018-08-31T23:24:12.048Z,90.70
2018-08-31T23:26:39.769Z,90.50
2018-08-31T23:29:07.448Z,90.40
2018-08-31T23:31:35.121Z,90.40
2018-08-31T23:34:02.991Z,90.30
2018-08-31T23:36:30.697Z,90.20
2018-08-31T23:38:58.441Z,90.30
2018-08-31T23:41:25.963Z,90.20
2018-08-31T23:43:53.500Z,90.50
2018-08-31T23:46:21.665Z,90.30
2018-08-31T23:48:49.192Z,90.20
2018-08-31T23:51:16.804Z,90.20
2018-08-31T23:53:44.318Z,90.50
2018-08-31T23:56:11.939Z,90.40
2018-08-31T23:58:39.752Z,90.30
